Time,TemperatureF,DewpointF,PressureIn,WindDirection,WindDirectionDegrees,WindSpeedMPH,WindSpeedGustMPH,Humidity,HourlyPrecipIn,Conditions,Clouds,dailyrainin,SoftwareType,DateUTC
2013-10-20 00:02:00,51.4,40.5,29.38,SW,234,0.0,0.0,66,0.00,,,0.00,LWC V2.10 B1813,2013-10-20 05:02:00,
2013-10-20 00:07:00,51.6,41.0,29.38,West,263,0.0,0.0,67,0.00,,,0.00,LWC V2.10 B1813,2013-10-20 05:07:00,
2013-10-20 00:12:00,51.3,41.1,29.38,NW,322,0.0,0.0,68,0.00,,,0.00,LWC V2.10 B1813,2013-10-20 05:12:00,
2013-10-20 00:17:00,50.5,40.4,29.38,NW,322,0.0,0.0,68,0.00,,,0.00,LWC V2.10 B1813,2013-10-20 05:17:00,
2013-10-20 00:22:00,50.2,40.8,29.38,NW,322,0.0,0.0,70,0.00,,,0.00,LWC V2.10 B1813,2013-10-20 05:22:00,
2013-10-20 00:27:00,49.8,40.8,29.38,NW,322,0.0,0.0,71,0.00,,,0.00,LWC V2.10 B1813,2013-10-20 05:27:00,
2013-10-20 00:32:00,49.5,40.8,29.38,NW,322,0.0,0.0,72,0.00,,,0.00,LWC V2.10 B1813,2013-10-20 05:32:00,
2013-10-20 00:37:00,49.3,40.6,29.38,North,0,2.7,3.1,72,0.00,,,0.00,LWC V2.10 B1813,2013-10-20 05:37:00,
2013-10-20 00:42:00,49.3,41.0,29.38,North,2,2.7,2.7,73,0.00,,,0.00,LWC V2.10 B1813,2013-10-20 05:42:00,
2013-10-20 00:47:00,49.3,41.0,29.38,North,6,2.7,3.1,73,0.00,,,0.00,LWC V2.10 B1813,2013-10-20 05:47:00,
2013-10-20 00:52:00,49.5,41.5,29.35,North,11,2.7,2.7,74,0.00,,,0.00,LWC V2.10 B1813,2013-10-20 05:52:00,
2013-10-20 00:57:00,49.3,41.3,29.35,North,11,0.0,0.0,74,0.00,,,0.00,LWC V2.10 B1813,2013-10-20 05:57:00,
2013-10-20 01:02:00,49.3,41.7,29.35,North,11,0.0,0.0,75,0.00,,,0.00,LWC V2.10 B1813,2013-10-20 06:02:00,
2013-10-20 01:07:00,48.9,41.3,29.35,North,11,0.0,0.0,75,0.00,,,0.00,LWC V2.10 B1813,2013-10-20 06:07:00,
2013-10-20 01:12:00,48.9,41.3,29.35,North,11,0.0,0.0,75,0.00,,,0.00,LWC V2.10 B1813,2013-10-20 06:12:00,
2013-10-20 01:17:00,48.9,41.3,29.35,North,11,0.0,0.0,75,0.00,,,0.00,LWC V2.10 B1813,2013-10-20 06:17:00,
2013-10-20 01:22:00,48.9,41.3,29.35,North,11,0.0,0.0,75,0.00,,,0.00,LWC V2.10 B1813,2013-10-20 06:22:00,
2013-10-20 01:27:00,48.9,41.3,29.35,North,11,0.0,0.0,75,0.00,,,0.00,LWC V2.10 B1813,2013-10-20 06:27:00,
2013-10-20 01:32:00,48.9,41.3,29.35,North,11,0.0,0.0,75,0.00,,,0.00,LWC V2.10 B1813,2013-10-20 06:32:00,
2013-10-20 01:37:00,48.7,41.2,29.35,North,11,0.0,0.0,75,0.00,,,0.00,LWC V2.10 B1813,2013-10-20 06:37:00,
2013-10-20 01:42:00,48.6,41.0,29.35,North,11,0.0,0.0,75,0.00,,,0.00,LWC V2.10 B1813,2013-10-20 06:42:00,
2013-10-20 01:47:00,48.2,40.7,29.35,North,11,0.0,0.0,75,0.00,,,0.00,LWC V2.10 B1813,2013-10-20 06:47:00,
2013-10-20 01:52:00,48.0,40.5,29.35,North,11,0.0,0.0,75,0.00,,,0.00,LWC V2.10 B1813,2013-10-20 06:52:00,
2013-10-20 01:57:00,47.7,40.1,29.35,North,11,0.0,0.0,75,0.00,,,0.00,LWC V2.10 B1813,2013-10-20 06:57:00,
2013-10-20 02:02:00,47.5,40.0,29.35,North,11,0.0,0.0,75,0.00,,,0.00,LWC V2.10 B1813,2013-10-20 07:02:00,
2013-10-20 02:07:00,47.5,40.0,29.35,North,11,0.0,0.0,75,0.00,,,0.00,LWC V2.10 B1813,2013-10-20 07:07:00,
2013-10-20 02:12:00,47.3,39.8,29.35,North,11,0.0,0.0,75,0.00,,,0.00,LWC V2.10 B1813,2013-10-20 07:12:00,
2013-10-20 02:17:00,46.9,39.4,29.35,North,11,0.0,0.0,75,0.00,,,0.00,LWC V2.10 B1813,2013-10-20 07:17:00,
2013-10-20 02:22:00,46.8,39.3,29.35,North,11,0.0,0.0,75,0.00,,,0.00,LWC V2.10 B1813,2013-10-20 07:22:00,
2013-10-20 02:27:00,46.6,38.7,29.35,North,353,3.1,3.1,74,0.00,,,0.00,LWC V2.10 B1813,2013-10-20 07:27:00,
2013-10-20 02:32:00,46.4,38.6,29.35,NNW,342,3.1,3.6,74,0.00,,,0.00,LWC V2.10 B1813,2013-10-20 07:32:00,
2013-10-20 02:37:00,46.2,38.4,29.32,NNW,337,0.0,0.0,74,0.00,,,0.00,LWC V2.10 B1813,2013-10-20 07:37:00,
2013-10-20 02:42:00,46.0,38.2,29.32,NNW,340,0.0,0.0,74,0.00,,,0.00,LWC V2.10 B1813,2013-10-20 07:42:00,
2013-10-20 02:47:00,46.0,38.2,29.32,North,0,2.2,2.7,74,0.00,,,0.00,LWC V2.10 B1813,2013-10-20 07:47:00,
2013-10-20 02:52:00,46.0,38.6,29.32,North,0,0.0,2.2,75,0.00,,,0.00,LWC V2.10 B1813,2013-10-20 07:52:00,
2013-10-20 02:57:00,46.2,38.7,29.32,North,0,0.0,0.0,75,0.00,,,0.00,LWC V2.10 B1813,2013-10-20 07:57:00,
2013-10-20 03:02:00,46.2,38.7,29.32,North,0,0.0,0.0,75,0.00,,,0.00,LWC V2.10 B1813,2013-10-20 08:02:00,
2013-10-20 03:07:00,46.4,38.9,29.32,North,353,0.0,0.0,75,0.00,,,0.00,LWC V2.10 B1813,2013-10-20 08:07:00,
2013-10-20 03:12:00,46.4,38.9,29.32,NNW,345,0.0,0.0,75,0.00,,,0.00,LWC V2.10 B1813,2013-10-20 08:12:00,
2013-10-20 03:17:00,46.2,38.7,29.32,NNW,345,0.0,0.0,75,0.00,,,0.00,LWC V2.10 B1813,2013-10-20 08:17:00,
2013-10-20 03:22:00,46.2,38.7,29.32,NNW,345,0.0,0.0,75,0.00,,,0.00,LWC V2.10 B1813,2013-10-20 08:22:00,
2013-10-20 03:27:00,46.6,39.1,29.32,NNW,345,0.0,0.0,75,0.00,,,0.00,LWC V2.10 B1813,2013-10-20 08:27:00,
2013-10-20 03:32:00,46.4,39.3,29.32,NNW,345,0.0,0.0,76,0.00,,,0.00,LWC V2.10 B1813,2013-10-20 08:32:00,
2013-10-20 03:37:00,46.0,38.9,29.32,NNW,345,0.0,0.0,76,0.00,,,0.00,LWC V2.10 B1813,2013-10-20 08:37:00,
2013-10-20 03:42:00,46.0,38.9,29.32,NNW,345,0.0,0.0,76,0.00,,,0.00,LWC V2.10 B1813,2013-10-20 08:42:00,
2013-10-20 03:47:00,46.2,39.1,29.32,NNW,345,0.0,0.0,76,0.00,,,0.00,LWC V2.10 B1813,2013-10-20 08:47:00,
2013-10-20 03:52:00,46.0,39.2,29.32,NNW,345,0.0,0.0,77,0.00,,,0.00,LWC V2.10 B1813,2013-10-20 08:52:00,
2013-10-20 03:57:00,46.2,39.4,29.32,NNW,345,0.0,0.0,77,0.00,,,0.00,LWC V2.10 B1813,2013-10-20 08:57:00,
2013-10-20 04:02:00,46.4,39.9,29.32,NNW,345,0.0,0.0,78,0.00,,,0.00,LWC V2.10 B1813,2013-10-20 09:02:00,
2013-10-20 04:07:00,46.4,39.9,29.29,NNW,345,0.0,0.0,78,0.00,,,0.00,LWC V2.10 B1813,2013-10-20 09:07:00,
2013-10-20 04:12:00,46.0,39.9,29.29,NNW,345,0.0,0.0,79,0.00,,,0.00,LWC V2.10 B1813,2013-10-20 09:12:00,
2013-10-20 04:17:00,45.7,39.5,29.29,NNW,345,0.0,0.0,79,0.00,,,0.00,LWC V2.10 B1813,2013-10-20 09:17:00,
2013-10-20 04:22:00,45.3,39.2,29.29,NNW,345,0.0,0.0,79,0.00,,,0.00,LWC V2.10 B1813,2013-10-20 09:22:00,
2013-10-20 04:27:00,45.1,39.0,29.29,NW,318,2.7,3.1,79,0.00,,,0.00,LWC V2.10 B1813,2013-10-20 09:27:00,
2013-10-20 04:32:00,45.0,38.8,29.29,NW,320,0.0,0.0,79,0.00,,,0.00,LWC V2.10 B1813,2013-10-20 09:32:00,
2013-10-20 04:37:00,44.8,38.7,29.29,NW,320,0.0,0.0,79,0.00,,,0.00,LWC V2.10 B1813,2013-10-20 09:37:00,
2013-10-20 04:42:00,44.6,38.5,29.29,NW,320,0.0,0.0,79,0.00,,,0.00,LWC V2.10 B1813,2013-10-20 09:42:00,
2013-10-20 04:47:00,44.2,38.5,29.29,NW,320,0.0,0.0,80,0.00,,,0.00,LWC V2.10 B1813,2013-10-20 09:47:00,
2013-10-20 04:52:00,44.2,38.5,29.29,NW,320,0.0,0.0,80,0.00,,,0.00,LWC V2.10 B1813,2013-10-20 09:52:00,
2013-10-20 04:57:00,44.4,38.6,29.29,NW,320,0.0,0.0,80,0.00,,,0.00,LWC V2.10 B1813,2013-10-20 09:57:00,
2013-10-20 05:02:00,44.2,38.8,29.29,NW,320,0.0,0.0,81,0.00,,,0.00,LWC V2.10 B1813,2013-10-20 10:02:00,
2013-10-20 05:07:00,44.2,38.8,29.29,NW,320,0.0,0.0,81,0.00,,,0.00,LWC V2.10 B1813,2013-10-20 10:07:00,
2013-10-20 05:12:00,44.2,38.8,29.29,NW,320,0.0,0.0,81,0.00,,,0.00,LWC V2.10 B1813,2013-10-20 10:12:00,
2013-10-20 05:17:00,44.6,39.1,29.29,NW,320,0.0,0.0,81,0.00,,,0.00,LWC V2.10 B1813,2013-10-20 10:17:00,
2013-10-20 05:22:00,44.8,39.3,29.29,NW,320,0.0,0.0,81,0.00,,,0.00,LWC V2.10 B1813,2013-10-20 10:22:00,
2013-10-20 05:27:00,44.8,39.3,29.29,North,353,0.0,0.0,81,0.00,,,0.00,LWC V2.10 B1813,2013-10-20 10:27:00,
2013-10-20 05:32:00,44.6,39.1,29.29,North,0,3.1,3.1,81,0.00,,,0.00,LWC V2.10 B1813,2013-10-20 10:32:00,
2013-10-20 05:37:00,44.6,39.1,29.29,North,0,2.2,2.2,81,0.00,,,0.00,LWC V2.10 B1813,2013-10-20 10:37:00,
2013-10-20 05:42:00,44.6,39.1,29.29,North,3,0.0,2.2,81,0.00,,,0.00,LWC V2.10 B1813,2013-10-20 10:42:00,
2013-10-20 05:47:00,44.6,39.1,29.29,North,3,0.0,0.0,81,0.00,,,0.00,LWC V2.10 B1813,2013-10-20 10:47:00,
2013-10-20 05:52:00,44.8,39.3,29.32,North,357,2.7,2.7,81,0.00,,,0.00,LWC V2.10 B1813,2013-10-20 10:52:00,
2013-10-20 05:57:00,45.0,39.8,29.32,North,0,0.0,0.0,82,0.00,,,0.00,LWC V2.10 B1813,2013-10-20 10:57:00,
2013-10-20 06:02:00,45.0,39.8,29.32,North,0,0.0,0.0,82,0.00,,,0.00,LWC V2.10 B1813,2013-10-20 11:02:00,
2013-10-20 06:07:00,45.0,39.8,29.32,North,0,0.0,0.0,82,0.00,,,0.00,LWC V2.10 B1813,2013-10-20 11:07:00,
2013-10-20 06:12:00,44.8,39.6,29.32,North,0,0.0,0.0,82,0.00,,,0.00,LWC V2.10 B1813,2013-10-20 11:12:00,
2013-10-20 06:17:00,45.0,39.8,29.32,North,0,0.0,0.0,82,0.00,,,0.00,LWC V2.10 B1813,2013-10-20 11:17:00,
2013-10-20 06:22:00,44.6,39.5,29.32,North,0,0.0,0.0,82,0.00,,,0.00,LWC V2.10 B1813,2013-10-20 11:22:00,
2013-10-20 06:27:00,44.4,39.3,29.32,North,0,0.0,0.0,82,0.00,,,0.00,LWC V2.10 B1813,2013-10-20 11:27:00,
2013-10-20 06:32:00,44.2,39.1,29.32,North,0,0.0,0.0,82,0.00,,,0.00,LWC V2.10 B1813,2013-10-20 11:32:00,
2013-10-20 06:37:00,44.2,39.1,29.32,North,0,0.0,0.0,82,0.00,,,0.00,LWC V2.10 B1813,2013-10-20 11:37:00,
2013-10-20 06:42:00,44.2,39.1,29.32,North,0,0.0,0.0,82,0.00,,,0.00,LWC V2.10 B1813,2013-10-20 11:42:00,
2013-10-20 06:47:00,44.4,39.3,29.32,North,0,0.0,0.0,82,0.00,,,0.00,LWC V2.10 B1813,2013-10-20 11:47:00,
2013-10-20 06:52:00,44.8,39.6,29.32,North,0,0.0,0.0,82,0.00,,,0.00,LWC V2.10 B1813,2013-10-20 11:52:00,
2013-10-20 06:57:00,45.0,40.1,29.32,North,0,0.0,0.0,83,0.00,,,0.00,LWC V2.10 B1813,2013-10-20 11:57:00,
2013-10-20 07:02:00,44.8,39.9,29.32,NNW,348,0.0,2.7,83,0.00,,,0.00,LWC V2.10 B1813,2013-10-20 12:02:00,
2013-10-20 07:07:00,44.2,39.4,29.32,North,357,0.0,2.2,83,0.00,,,0.00,LWC V2.10 B1813,2013-10-20 12:07:00,
2013-10-20 07:12:00,44.1,39.2,29.32,North,357,0.0,2.2,83,0.00,,,0.00,LWC V2.10 B1813,2013-10-20 12:12:00,
2013-10-20 07:17:00,43.9,39.1,29.32,North,0,0.0,0.0,83,0.00,,,0.00,LWC V2.10 B1813,2013-10-20 12:17:00,
2013-10-20 07:22:00,43.7,38.9,29.32,North,0,0.0,0.0,83,0.00,,,0.00,LWC V2.10 B1813,2013-10-20 12:22:00,
2013-10-20 07:27:00,43.9,39.1,29.32,North,0,0.0,0.0,83,0.00,,,0.00,LWC V2.10 B1813,2013-10-20 12:27:00,
2013-10-20 07:32:00,43.9,39.1,29.32,North,0,0.0,0.0,83,0.00,,,0.00,LWC V2.10 B1813,2013-10-20 12:32:00,
2013-10-20 07:37:00,43.7,38.9,29.32,North,0,0.0,0.0,83,0.00,,,0.00,LWC V2.10 B1813,2013-10-20 12:37:00,
2013-10-20 07:42:00,43.5,38.7,29.32,North,0,0.0,0.0,83,0.00,,,0.00,LWC V2.10 B1813,2013-10-20 12:42:00,
2013-10-20 07:47:00,43.7,38.9,29.32,North,0,0.0,0.0,83,0.00,,,0.00,LWC V2.10 B1813,2013-10-20 12:47:00,
2013-10-20 07:52:00,44.1,39.2,29.32,North,4,0.0,0.0,83,0.00,,,0.00,LWC V2.10 B1813,2013-10-20 12:52:00,
2013-10-20 07:57:00,44.4,39.9,29.32,North,4,0.0,0.0,84,0.00,,,0.00,LWC V2.10 B1813,2013-10-20 12:57:00,
2013-10-20 08:02:00,44.6,39.8,29.32,North,4,0.0,0.0,83,0.00,,,0.00,LWC V2.10 B1813,2013-10-20 13:02:00,
2013-10-20 08:07:00,45.0,40.1,29.32,North,4,0.0,0.0,83,0.00,,,0.00,LWC V2.10 B1813,2013-10-20 13:07:00,
2013-10-20 08:12:00,44.8,39.9,29.32,North,4,0.0,0.0,83,0.00,,,0.00,LWC V2.10 B1813,2013-10-20 13:12:00,
2013-10-20 08:17:00,45.0,40.1,29.32,North,4,0.0,0.0,83,0.00,,,0.00,LWC V2.10 B1813,2013-10-20 13:17:00,
2013-10-20 08:22:00,45.7,40.8,29.35,North,4,0.0,0.0,83,0.00,,,0.00,LWC V2.10 B1813,2013-10-20 13:22:00,
2013-10-20 08:27:00,46.2,41.3,29.35,North,4,0.0,0.0,83,0.00,,,0.00,LWC V2.10 B1813,2013-10-20 13:27:00,
2013-10-20 08:32:00,46.2,41.3,29.35,North,3,0.0,0.0,83,0.00,,,0.00,LWC V2.10 B1813,2013-10-20 13:32:00,
2013-10-20 08:37:00,46.4,41.5,29.35,North,3,0.0,0.0,83,0.00,,,0.00,LWC V2.10 B1813,2013-10-20 13:37:00,
2013-10-20 08:42:00,46.6,41.7,29.35,North,3,0.0,0.0,83,0.00,,,0.00,LWC V2.10 B1813,2013-10-20 13:42:00,
2013-10-20 08:47:00,47.3,42.4,29.35,North,3,0.0,0.0,83,0.00,,,0.00,LWC V2.10 B1813,2013-10-20 13:47:00,
2013-10-20 08:52:00,48.2,43.3,29.35,North,3,0.0,0.0,83,0.00,,,0.00,LWC V2.10 B1813,2013-10-20 13:52:00,
2013-10-20 08:57:00,48.6,43.6,29.35,North,3,0.0,0.0,83,0.00,,,0.00,LWC V2.10 B1813,2013-10-20 13:57:00,
2013-10-20 09:02:00,49.1,44.2,29.35,North,4,0.0,0.0,83,0.00,,,0.00,LWC V2.10 B1813,2013-10-20 14:02:00,
2013-10-20 09:07:00,49.6,44.7,29.35,North,4,0.0,0.0,83,0.00,,,0.00,LWC V2.10 B1813,2013-10-20 14:07:00,
2013-10-20 09:12:00,50.5,45.3,29.35,ESE,116,0.0,3.6,82,0.00,,,0.00,LWC V2.10 B1813,2013-10-20 14:12:00,
2013-10-20 09:17:00,51.6,46.3,29.35,South,171,0.0,0.0,82,0.00,,,0.00,LWC V2.10 B1813,2013-10-20 14:17:00,
2013-10-20 09:22:00,51.6,46.3,29.35,SW,222,2.7,3.1,82,0.00,,,0.00,LWC V2.10 B1813,2013-10-20 14:22:00,
2013-10-20 09:27:00,51.6,46.0,29.35,SW,217,0.0,0.0,81,0.00,,,0.00,LWC V2.10 B1813,2013-10-20 14:27:00,
2013-10-20 09:32:00,52.3,46.4,29.35,South,169,2.2,3.1,80,0.00,,,0.00,LWC V2.10 B1813,2013-10-20 14:32:00,
2013-10-20 09:37:00,53.1,47.1,29.35,SE,145,3.1,4.9,80,0.00,,,0.00,LWC V2.10 B1813,2013-10-20 14:37:00,
2013-10-20 09:42:00,53.8,46.7,29.35,South,180,5.4,6.3,77,0.00,,,0.00,LWC V2.10 B1813,2013-10-20 14:42:00,
2013-10-20 09:47:00,54.7,46.9,29.35,South,177,5.4,5.8,75,0.00,,,0.00,LWC V2.10 B1813,2013-10-20 14:47:00,
2013-10-20 09:52:00,55.2,46.0,29.35,SSW,212,2.7,5.8,71,0.00,,,0.00,LWC V2.10 B1813,2013-10-20 14:52:00,
2013-10-20 09:57:00,55.8,45.4,29.35,SSE,158,3.1,5.8,68,0.00,,,0.00,LWC V2.10 B1813,2013-10-20 14:57:00,
2013-10-20 10:02:00,56.3,45.1,29.35,SE,144,5.8,6.3,66,0.00,,,0.00,LWC V2.10 B1813,2013-10-20 15:02:00,
2013-10-20 10:07:00,56.8,44.8,29.38,ESE,122,2.7,7.6,64,0.00,,,0.00,LWC V2.10 B1813,2013-10-20 15:07:00,
2013-10-20 10:12:00,57.2,43.9,29.38,SSE,160,5.4,6.3,61,0.00,,,0.00,LWC V2.10 B1813,2013-10-20 15:12:00,
2013-10-20 10:17:00,57.9,44.5,29.38,ESE,120,5.8,5.8,61,0.00,,,0.00,LWC V2.10 B1813,2013-10-20 15:17:00,
2013-10-20 10:22:00,58.5,44.6,29.35,ESE,113,2.7,5.4,60,0.00,,,0.00,LWC V2.10 B1813,2013-10-20 15:22:00,
2013-10-20 10:27:00,58.5,43.7,29.35,ENE,60,3.6,5.8,58,0.00,,,0.00,LWC V2.10 B1813,2013-10-20 15:27:00,
2013-10-20 10:32:00,58.8,44.1,29.35,South,180,5.8,6.3,58,0.00,,,0.00,LWC V2.10 B1813,2013-10-20 15:32:00,
2013-10-20 10:37:00,58.8,43.6,29.35,SSE,152,6.3,7.6,57,0.00,,,0.00,LWC V2.10 B1813,2013-10-20 15:37:00,
2013-10-20 10:42:00,59.5,44.7,29.35,ENE,77,3.1,4.9,58,0.00,,,0.00,LWC V2.10 B1813,2013-10-20 15:42:00,
2013-10-20 10:47:00,59.9,45.1,29.35,ENE,75,4.0,7.6,58,0.00,,,0.00,LWC V2.10 B1813,2013-10-20 15:47:00,
2013-10-20 10:52:00,59.9,44.6,29.35,ENE,73,4.9,5.8,57,0.00,,,0.00,LWC V2.10 B1813,2013-10-20 15:52:00,
2013-10-20 10:57:00,60.1,44.8,29.35,ESE,102,6.3,7.6,57,0.00,,,0.00,LWC V2.10 B1813,2013-10-20 15:57:00,
2013-10-20 11:02:00,60.3,44.5,29.35,SSE,163,3.6,7.6,56,0.00,,,0.00,LWC V2.10 B1813,2013-10-20 16:02:00,
2013-10-20 11:07:00,60.6,44.8,29.35,South,191,4.0,7.2,56,0.00,,,0.00,LWC V2.10 B1813,2013-10-20 16:07:00,
2013-10-20 11:12:00,61.3,45.5,29.35,ENE,68,2.7,5.8,56,0.00,,,0.00,LWC V2.10 B1813,2013-10-20 16:12:00,
2013-10-20 11:17:00,61.9,45.0,29.35,South,170,4.9,5.8,54,0.00,,,0.00,LWC V2.10 B1813,2013-10-20 16:17:00,
2013-10-20 11:22:00,62.6,45.2,29.35,ESE,123,4.9,6.3,53,0.00,,,0.00,LWC V2.10 B1813,2013-10-20 16:22:00,
2013-10-20 11:27:00,63.0,45.1,29.35,South,169,6.3,8.1,52,0.00,,,0.00,LWC V2.10 B1813,2013-10-20 16:27:00,
2013-10-20 11:32:00,62.8,44.4,29.35,South,170,5.4,8.1,51,0.00,,,0.00,LWC V2.10 B1813,2013-10-20 16:32:00,
2013-10-20 11:36:00,63.1,43.7,29.32,SSW,192,3.1,8.7,49,0.00,,,0.00,LWC V2.10 B1813,2013-10-20 16:36:00,
2013-10-20 11:41:00,63.5,43.5,29.32,SSE,156,4.9,5.4,48,0.00,,,0.00,LWC V2.10 B1813,2013-10-20 16:41:00,
2013-10-20 11:46:00,63.9,43.8,29.32,SSW,211,6.3,6.3,48,0.00,,,0.00,LWC V2.10 B1813,2013-10-20 16:46:00,
2013-10-20 11:51:00,63.7,42.5,29.35,South,190,5.8,8.7,46,0.00,,,0.00,LWC V2.10 B1813,2013-10-20 16:51:00,
2013-10-20 11:56:00,63.9,42.7,29.35,SE,127,5.4,8.7,46,0.00,,,0.00,LWC V2.10 B1813,2013-10-20 16:56:00,
2013-10-20 12:01:00,64.6,43.3,29.35,SE,125,4.9,5.4,46,0.00,,,0.00,LWC V2.10 B1813,2013-10-20 17:01:00,
2013-10-20 12:06:00,65.7,44.3,29.35,South,188,4.5,7.6,46,0.00,,,0.00,LWC V2.10 B1813,2013-10-20 17:06:00,
2013-10-20 12:11:00,65.7,44.3,29.35,East,79,3.6,6.3,46,0.00,,,0.00,LWC V2.10 B1813,2013-10-20 17:11:00,
2013-10-20 12:16:00,66.2,44.2,29.35,ESE,112,5.8,6.3,45,0.00,,,0.00,LWC V2.10 B1813,2013-10-20 17:16:00,
2013-10-20 12:21:00,66.2,44.2,29.32,ENE,62,3.6,6.7,45,0.00,,,0.00,LWC V2.10 B1813,2013-10-20 17:21:00,
2013-10-20 12:26:00,66.2,44.2,29.32,East,91,6.3,8.3,45,0.00,,,0.00,LWC V2.10 B1813,2013-10-20 17:26:00,
2013-10-20 12:31:00,66.7,44.7,29.32,SSE,147,5.8,6.3,45,0.00,,,0.00,LWC V2.10 B1813,2013-10-20 17:31:00,
2013-10-20 12:36:00,66.4,43.8,29.32,SSW,200,4.5,6.3,44,0.00,,,0.00,LWC V2.10 B1813,2013-10-20 17:36:00,
2013-10-20 12:41:00,66.9,44.3,29.32,ENE,58,3.6,8.7,44,0.00,,,0.00,LWC V2.10 B1813,2013-10-20 17:41:00,
2013-10-20 12:46:00,67.8,45.1,29.32,SSE,151,3.1,5.4,44,0.00,,,0.00,LWC V2.10 B1813,2013-10-20 17:46:00,
2013-10-20 12:51:00,67.1,43.8,29.32,SSE,158,5.8,7.6,43,0.00,,,0.00,LWC V2.10 B1813,2013-10-20 17:51:00,
2013-10-20 12:56:00,67.5,44.2,29.32,South,178,5.8,6.3,43,0.00,,,0.00,LWC V2.10 B1813,2013-10-20 17:56:00,
2013-10-20 13:01:00,67.5,44.2,29.32,SSE,147,5.8,8.3,43,0.00,,,0.00,LWC V2.10 B1813,2013-10-20 18:01:00,
2013-10-20 13:06:00,68.4,45.0,29.29,East,101,6.3,8.3,43,0.00,,,0.00,LWC V2.10 B1813,2013-10-20 18:06:00,
2013-10-20 13:11:00,68.7,45.3,29.29,ESE,114,4.0,6.3,43,0.00,,,0.00,LWC V2.10 B1813,2013-10-20 18:11:00,
2013-10-20 13:16:00,68.4,43.7,29.29,SW,222,4.9,8.7,41,0.00,,,0.00,LWC V2.10 B1813,2013-10-20 18:16:00,
2013-10-20 13:21:00,68.7,44.1,29.29,South,188,6.3,7.6,41,0.00,,,0.00,LWC V2.10 B1813,2013-10-20 18:21:00,
2013-10-20 13:26:00,69.1,43.7,29.29,SE,144,4.0,8.7,40,0.00,,,0.00,LWC V2.10 B1813,2013-10-20 18:26:00,
2013-10-20 13:31:00,69.3,43.9,29.29,ENE,62,6.3,11.0,40,0.00,,,0.00,LWC V2.10 B1813,2013-10-20 18:31:00,
2013-10-20 13:36:00,69.4,44.1,29.29,SE,127,5.4,5.4,40,0.00,,,0.00,LWC V2.10 B1813,2013-10-20 18:36:00,
2013-10-20 13:41:00,68.7,42.8,29.29,SSW,196,4.9,11.0,39,0.00,,,0.00,LWC V2.10 B1813,2013-10-20 18:41:00,
2013-10-20 13:46:00,69.4,43.4,29.29,South,171,4.9,10.5,39,0.00,,,0.00,LWC V2.10 B1813,2013-10-20 18:46:00,
2013-10-20 13:51:00,69.8,43.7,29.26,South,183,4.0,8.3,39,0.00,,,0.00,LWC V2.10 B1813,2013-10-20 18:51:00,
2013-10-20 13:56:00,69.6,43.6,29.26,SSE,150,6.3,7.6,39,0.00,,,0.00,LWC V2.10 B1813,2013-10-20 18:56:00,
2013-10-20 14:01:00,70.3,44.2,29.26,South,187,5.8,8.3,39,0.00,,,0.00,LWC V2.10 B1813,2013-10-20 19:01:00,
2013-10-20 14:06:00,70.9,45.3,29.26,South,182,4.0,8.1,40,0.00,,,0.00,LWC V2.10 B1813,2013-10-20 19:06:00,
2013-10-20 14:11:00,70.5,44.4,29.26,South,181,5.4,8.3,39,0.00,,,0.00,LWC V2.10 B1813,2013-10-20 19:11:00,
2013-10-20 14:16:00,70.7,43.8,29.26,South,184,7.6,8.7,38,0.00,,,0.00,LWC V2.10 B1813,2013-10-20 19:16:00,
2013-10-20 14:21:00,70.2,43.4,29.26,South,178,4.9,8.3,38,0.00,,,0.00,LWC V2.10 B1813,2013-10-20 19:21:00,
2013-10-20 14:26:00,70.3,43.5,29.26,SSW,197,8.1,8.3,38,0.00,,,0.00,LWC V2.10 B1813,2013-10-20 19:26:00,
2013-10-20 14:31:00,70.3,43.5,29.26,SE,136,4.0,8.1,38,0.00,,,0.00,LWC V2.10 B1813,2013-10-20 19:31:00,
2013-10-20 14:36:00,70.7,43.8,29.26,South,180,6.3,10.1,38,0.00,,,0.00,LWC V2.10 B1813,2013-10-20 19:36:00,
2013-10-20 14:41:00,70.7,43.8,29.26,South,174,8.3,10.5,38,0.00,,,0.00,LWC V2.10 B1813,2013-10-20 19:41:00,
2013-10-20 14:46:00,71.2,44.3,29.26,South,181,8.1,10.1,38,0.00,,,0.00,LWC V2.10 B1813,2013-10-20 19:46:00,
2013-10-20 14:51:00,70.7,43.8,29.24,South,181,6.3,10.5,38,0.00,,,0.00,LWC V2.10 B1813,2013-10-20 19:51:00,
2013-10-20 14:56:00,71.2,44.3,29.24,South,185,8.3,11.0,38,0.00,,,0.00,LWC V2.10 B1813,2013-10-20 19:56:00,
2013-10-20 15:01:00,71.1,44.2,29.24,ENE,75,7.6,14.5,38,0.00,,,0.00,LWC V2.10 B1813,2013-10-20 20:01:00,
2013-10-20 15:06:00,72.0,45.0,29.24,SSE,156,8.7,8.7,38,0.00,,,0.00,LWC V2.10 B1813,2013-10-20 20:06:00,
2013-10-20 15:11:00,72.0,44.3,29.24,South,173,12.3,12.8,37,0.00,,,0.00,LWC V2.10 B1813,2013-10-20 20:11:00,
2013-10-20 15:16:00,72.0,44.3,29.24,South,188,10.5,11.0,37,0.00,,,0.00,LWC V2.10 B1813,2013-10-20 20:16:00,
2013-10-20 15:21:00,72.3,45.3,29.24,ESE,108,5.4,7.6,38,0.00,,,0.00,LWC V2.10 B1813,2013-10-20 20:21:00,
2013-10-20 15:26:00,72.3,44.6,29.24,SW,232,6.3,10.1,37,0.00,,,0.00,LWC V2.10 B1813,2013-10-20 20:26:00,
2013-10-20 15:31:00,72.3,45.3,29.24,South,176,4.9,8.3,38,0.00,,,0.00,LWC V2.10 B1813,2013-10-20 20:31:00,
2013-10-20 15:36:00,72.1,45.1,29.24,SSE,152,5.4,8.7,38,0.00,,,0.00,LWC V2.10 B1813,2013-10-20 20:36:00,
2013-10-20 15:41:00,72.1,45.1,29.24,SW,227,5.4,11.0,38,0.00,,,0.00,LWC V2.10 B1813,2013-10-20 20:41:00,
2013-10-20 15:46:00,72.1,45.1,29.24,South,185,5.8,8.1,38,0.00,,,0.00,LWC V2.10 B1813,2013-10-20 20:46:00,
2013-10-20 15:51:00,73.0,46.6,29.24,SSW,199,5.8,10.5,39,0.00,,,0.00,LWC V2.10 B1813,2013-10-20 20:51:00,
2013-10-20 15:56:00,73.0,46.6,29.24,SSE,153,5.8,9.6,39,0.00,,,0.00,LWC V2.10 B1813,2013-10-20 20:56:00,
2013-10-20 16:01:00,72.3,45.3,29.24,SSW,193,6.3,11.0,38,0.00,,,0.00,LWC V2.10 B1813,2013-10-20 21:01:00,
2013-10-20 16:06:00,72.7,46.3,29.24,South,191,8.1,8.3,39,0.00,,,0.00,LWC V2.10 B1813,2013-10-20 21:06:00,
2013-10-20 16:11:00,72.5,46.1,29.24,South,181,8.7,10.1,39,0.00,,,0.00,LWC V2.10 B1813,2013-10-20 21:11:00,
2013-10-20 16:16:00,72.5,46.1,29.24,SSW,192,4.0,8.1,39,0.00,,,0.00,LWC V2.10 B1813,2013-10-20 21:16:00,
2013-10-20 16:21:00,72.3,45.3,29.20,ESE,117,10.5,10.5,38,0.00,,,0.00,LWC V2.10 B1813,2013-10-20 21:21:00,
2013-10-20 16:26:00,72.5,46.1,29.20,SSW,210,7.2,9.6,39,0.00,,,0.00,LWC V2.10 B1813,2013-10-20 21:26:00,
2013-10-20 16:31:00,72.9,46.4,29.20,SE,143,7.6,10.5,39,0.00,,,0.00,LWC V2.10 B1813,2013-10-20 21:31:00,
2013-10-20 16:36:00,72.9,46.4,29.20,SSW,198,3.6,10.1,39,0.00,,,0.00,LWC V2.10 B1813,2013-10-20 21:36:00,
2013-10-20 16:41:00,72.7,46.3,29.20,South,173,6.3,13.2,39,0.00,,,0.00,LWC V2.10 B1813,2013-10-20 21:41:00,
2013-10-20 16:46:00,72.7,46.3,29.20,South,187,8.3,12.8,39,0.00,,,0.00,LWC V2.10 B1813,2013-10-20 21:46:00,
2013-10-20 16:51:00,72.5,46.1,29.20,SE,143,8.1,13.2,39,0.00,,,0.00,LWC V2.10 B1813,2013-10-20 21:51:00,
2013-10-20 16:56:00,72.1,45.1,29.20,South,181,8.7,13.2,38,0.00,,,0.00,LWC V2.10 B1813,2013-10-20 21:56:00,
2013-10-20 17:01:00,72.1,45.1,29.20,South,176,8.3,14.5,38,0.00,,,0.00,LWC V2.10 B1813,2013-10-20 22:01:00,
2013-10-20 17:06:00,72.1,45.1,29.20,South,189,5.8,11.0,38,0.00,,,0.00,LWC V2.10 B1813,2013-10-20 22:06:00,
2013-10-20 17:11:00,72.1,45.1,29.20,SW,223,6.3,10.1,38,0.00,,,0.00,LWC V2.10 B1813,2013-10-20 22:11:00,
2013-10-20 17:16:00,72.1,45.1,29.20,SE,136,7.6,8.7,38,0.00,,,0.00,LWC V2.10 B1813,2013-10-20 22:16:00,
2013-10-20 17:21:00,72.0,45.0,29.20,SSE,168,9.6,12.3,38,0.00,,,0.00,LWC V2.10 B1813,2013-10-20 22:21:00,
2013-10-20 17:26:00,72.0,45.0,29.20,South,190,7.2,10.1,38,0.00,,,0.00,LWC V2.10 B1813,2013-10-20 22:26:00,
2013-10-20 17:31:00,71.8,44.8,29.20,SSW,196,5.8,8.1,38,0.00,,,0.00,LWC V2.10 B1813,2013-10-20 22:31:00,
2013-10-20 17:36:00,72.0,45.0,29.20,South,172,5.8,8.7,38,0.00,,,0.00,LWC V2.10 B1813,2013-10-20 22:36:00,
2013-10-20 17:41:00,71.8,44.8,29.20,SSE,152,6.3,10.1,38,0.00,,,0.00,LWC V2.10 B1813,2013-10-20 22:41:00,
2013-10-20 17:46:00,71.6,44.6,29.20,SE,124,5.4,11.0,38,0.00,,,0.00,LWC V2.10 B1813,2013-10-20 22:46:00,
2013-10-20 17:51:00,71.6,44.6,29.20,SE,146,5.4,11.0,38,0.00,,,0.00,LWC V2.10 B1813,2013-10-20 22:51:00,
2013-10-20 17:56:00,71.6,45.3,29.20,SSE,155,3.1,8.7,39,0.00,,,0.00,LWC V2.10 B1813,2013-10-20 22:56:00,
2013-10-20 18:01:00,71.4,45.2,29.20,SSW,192,3.6,5.8,39,0.00,,,0.00,LWC V2.10 B1813,2013-10-20 23:01:00,
2013-10-20 18:06:00,71.1,44.8,29.20,South,179,6.3,10.1,39,0.00,,,0.00,LWC V2.10 B1813,2013-10-20 23:06:00,
2013-10-20 18:11:00,70.9,44.7,29.20,South,177,10.1,11.4,39,0.00,,,0.00,LWC V2.10 B1813,2013-10-20 23:11:00,
2013-10-20 18:16:00,70.9,44.7,29.20,ESE,105,5.8,5.8,39,0.00,,,0.00,LWC V2.10 B1813,2013-10-20 23:16:00,
2013-10-20 18:21:00,70.5,44.4,29.20,SSE,149,7.6,9.6,39,0.00,,,0.00,LWC V2.10 B1813,2013-10-20 23:21:00,
2013-10-20 18:26:00,70.3,44.9,29.20,SW,227,5.4,10.1,40,0.00,,,0.00,LWC V2.10 B1813,2013-10-20 23:26:00,
2013-10-20 18:31:00,70.0,44.5,29.20,SE,126,4.9,6.3,40,0.00,,,0.00,LWC V2.10 B1813,2013-10-20 23:31:00,
2013-10-20 18:36:00,69.6,44.9,29.20,SSE,165,6.7,8.1,41,0.00,,,0.00,LWC V2.10 B1813,2013-10-20 23:36:00,
2013-10-20 18:41:00,69.4,44.7,29.20,SSE,147,5.8,7.6,41,0.00,,,0.00,LWC V2.10 B1813,2013-10-20 23:41:00,
2013-10-20 18:46:00,69.1,45.0,29.20,SSW,211,10.1,10.1,42,0.00,,,0.00,LWC V2.10 B1813,2013-10-20 23:46:00,
2013-10-20 18:51:00,68.7,44.7,29.20,SSE,160,4.0,8.3,42,0.00,,,0.00,LWC V2.10 B1813,2013-10-20 23:51:00,
2013-10-20 18:56:00,68.2,44.2,29.20,SE,146,3.6,4.9,42,0.00,,,0.00,LWC V2.10 B1813,2013-10-20 23:56:00,
2013-10-20 19:01:00,67.8,44.5,29.20,SE,130,3.1,6.3,43,0.00,,,0.00,LWC V2.10 B1813,2013-10-21 00:01:00,
2013-10-20 19:06:00,67.3,44.6,29.20,South,174,3.6,5.8,44,0.00,,,0.00,LWC V2.10 B1813,2013-10-21 00:06:00,
2013-10-20 19:11:00,67.3,44.6,29.20,SSE,153,4.5,6.3,44,0.00,,,0.00,LWC V2.10 B1813,2013-10-21 00:11:00,
2013-10-20 19:16:00,66.9,44.3,29.20,SE,126,3.6,5.4,44,0.00,,,0.00,LWC V2.10 B1813,2013-10-21 00:16:00,
2013-10-20 19:21:00,66.7,44.1,29.20,ESE,109,3.6,5.4,44,0.00,,,0.00,LWC V2.10 B1813,2013-10-21 00:21:00,
2013-10-20 19:26:00,66.6,44.6,29.20,East,89,4.9,4.9,45,0.00,,,0.00,LWC V2.10 B1813,2013-10-21 00:26:00,
2013-10-20 19:31:00,66.4,44.4,29.20,East,84,2.7,4.9,45,0.00,,,0.00,LWC V2.10 B1813,2013-10-21 00:31:00,
2013-10-20 19:36:00,66.2,44.2,29.20,South,170,3.1,5.8,45,0.00,,,0.00,LWC V2.10 B1813,2013-10-21 00:36:00,
2013-10-20 19:41:00,66.0,44.6,29.20,SSE,164,5.4,5.8,46,0.00,,,0.00,LWC V2.10 B1813,2013-10-21 00:41:00,
2013-10-20 19:46:00,66.0,44.1,29.20,SSE,152,4.5,5.8,45,0.00,,,0.00,LWC V2.10 B1813,2013-10-21 00:46:00,
2013-10-20 19:51:00,65.8,44.5,29.20,SSE,165,3.6,5.8,46,0.00,,,0.00,LWC V2.10 B1813,2013-10-21 00:51:00,
2013-10-20 19:56:00,65.8,44.5,29.20,SE,144,4.0,5.4,46,0.00,,,0.00,LWC V2.10 B1813,2013-10-21 00:56:00,
2013-10-20 20:01:00,65.7,44.3,29.20,ESE,106,3.1,7.6,46,0.00,,,0.00,LWC V2.10 B1813,2013-10-21 01:01:00,
2013-10-20 20:06:00,65.7,44.3,29.20,SSE,152,4.0,5.8,46,0.00,,,0.00,LWC V2.10 B1813,2013-10-21 01:06:00,
2013-10-20 20:11:00,65.5,44.1,29.20,SSE,155,7.2,8.1,46,0.00,,,0.00,LWC V2.10 B1813,2013-10-21 01:11:00,
2013-10-20 20:16:00,65.5,44.1,29.20,SE,145,3.1,7.6,46,0.00,,,0.00,LWC V2.10 B1813,2013-10-21 01:16:00,
2013-10-20 20:21:00,65.5,44.1,29.20,South,176,6.3,8.3,46,0.00,,,0.00,LWC V2.10 B1813,2013-10-21 01:21:00,
2013-10-20 20:26:00,65.3,44.0,29.20,SE,143,7.2,7.2,46,0.00,,,0.00,LWC V2.10 B1813,2013-10-21 01:26:00,
2013-10-20 20:31:00,65.1,43.8,29.20,SE,132,7.2,8.7,46,0.00,,,0.00,LWC V2.10 B1813,2013-10-21 01:31:00,
2013-10-20 20:36:00,64.8,43.5,29.20,SE,127,3.6,6.3,46,0.00,,,0.00,LWC V2.10 B1813,2013-10-21 01:36:00,
2013-10-20 20:41:00,64.8,43.5,29.20,ESE,109,7.6,8.3,46,0.00,,,0.00,LWC V2.10 B1813,2013-10-21 01:41:00,
2013-10-20 20:46:00,64.8,43.5,29.20,SE,126,5.8,6.3,46,0.00,,,0.00,LWC V2.10 B1813,2013-10-21 01:46:00,
2013-10-20 20:51:00,64.8,43.5,29.20,East,98,7.2,8.1,46,0.00,,,0.00,LWC V2.10 B1813,2013-10-21 01:51:00,
2013-10-20 20:56:00,64.8,43.5,29.20,SE,146,6.7,8.3,46,0.00,,,0.00,LWC V2.10 B1813,2013-10-21 01:56:00,
2013-10-20 21:01:00,64.6,43.9,29.20,SE,139,8.1,8.1,47,0.00,,,0.00,LWC V2.10 B1813,2013-10-21 02:01:00,
2013-10-20 21:06:00,64.6,43.9,29.20,SSE,160,3.6,10.5,47,0.00,,,0.00,LWC V2.10 B1813,2013-10-21 02:06:00,
2013-10-20 21:11:00,64.4,43.7,29.20,South,174,5.8,8.3,47,0.00,,,0.00,LWC V2.10 B1813,2013-10-21 02:11:00,
2013-10-20 21:16:00,64.2,43.6,29.20,SSE,150,4.9,8.7,47,0.00,,,0.00,LWC V2.10 B1813,2013-10-21 02:16:00,
2013-10-20 21:21:00,64.0,43.4,29.20,SSE,155,7.6,7.6,47,0.00,,,0.00,LWC V2.10 B1813,2013-10-21 02:21:00,
2013-10-20 21:26:00,64.0,43.4,29.20,SE,143,3.1,5.8,47,0.00,,,0.00,LWC V2.10 B1813,2013-10-21 02:26:00,
2013-10-20 21:31:00,63.7,43.6,29.20,SE,145,3.6,4.9,48,0.00,,,0.00,LWC V2.10 B1813,2013-10-21 02:31:00,
2013-10-20 21:36:00,63.5,43.5,29.20,SSE,155,3.1,5.8,48,0.00,,,0.00,LWC V2.10 B1813,2013-10-21 02:36:00,
2013-10-20 21:41:00,63.5,43.5,29.20,SE,134,4.0,5.4,48,0.00,,,0.00,LWC V2.10 B1813,2013-10-21 02:41:00,
2013-10-20 21:46:00,63.3,43.3,29.20,South,177,3.6,5.4,48,0.00,,,0.00,LWC V2.10 B1813,2013-10-21 02:46:00,
2013-10-20 21:51:00,63.1,43.7,29.20,SE,144,3.6,5.4,49,0.00,,,0.00,LWC V2.10 B1813,2013-10-21 02:51:00,
2013-10-20 21:56:00,63.0,43.5,29.20,SE,143,3.1,3.6,49,0.00,,,0.00,LWC V2.10 B1813,2013-10-21 02:56:00,
2013-10-20 22:01:00,63.0,43.5,29.20,SSW,195,4.0,5.8,49,0.00,,,0.00,LWC V2.10 B1813,2013-10-21 03:01:00,
2013-10-20 22:06:00,63.0,43.5,29.24,SE,138,5.4,5.8,49,0.00,,,0.00,LWC V2.10 B1813,2013-10-21 03:06:00,
2013-10-20 22:12:00,62.8,43.3,29.24,SSE,147,4.0,5.8,49,0.00,,,0.00,LWC V2.10 B1813,2013-10-21 03:12:00,
2013-10-20 22:17:00,63.0,43.5,29.24,SSE,164,4.0,4.9,49,0.00,,,0.00,LWC V2.10 B1813,2013-10-21 03:17:00,
2013-10-20 22:22:00,63.0,44.0,29.24,SSE,150,4.0,4.9,50,0.00,,,0.00,LWC V2.10 B1813,2013-10-21 03:22:00,
2013-10-20 22:27:00,63.1,43.7,29.24,South,175,4.9,7.2,49,0.00,,,0.00,LWC V2.10 B1813,2013-10-21 03:27:00,
2013-10-20 22:32:00,63.1,43.7,29.24,ESE,109,4.0,6.3,49,0.00,,,0.00,LWC V2.10 B1813,2013-10-21 03:32:00,
2013-10-20 22:37:00,63.3,43.8,29.24,SE,145,5.4,5.4,49,0.00,,,0.00,LWC V2.10 B1813,2013-10-21 03:37:00,
2013-10-20 22:42:00,63.1,43.7,29.24,SE,136,5.4,6.3,49,0.00,,,0.00,LWC V2.10 B1813,2013-10-21 03:42:00,
2013-10-20 22:47:00,63.1,44.2,29.24,South,173,5.4,6.3,50,0.00,,,0.00,LWC V2.10 B1813,2013-10-21 03:47:00,
2013-10-20 22:52:00,63.3,44.4,29.24,SSE,151,5.8,7.2,50,0.00,,,0.00,LWC V2.10 B1813,2013-10-21 03:52:00,
2013-10-20 22:57:00,63.3,44.4,29.24,East,100,5.4,5.8,50,0.00,,,0.00,LWC V2.10 B1813,2013-10-21 03:57:00,
2013-10-20 23:01:00,63.0,44.0,29.24,SSE,157,5.4,5.8,50,0.00,,,0.00,LWC V2.10 B1813,2013-10-21 04:01:00,
2013-10-20 23:06:00,62.8,44.4,29.24,SSE,159,6.3,6.7,51,0.00,,,0.00,LWC V2.10 B1813,2013-10-21 04:06:00,
2013-10-20 23:11:00,63.0,44.5,29.24,South,171,5.4,7.6,51,0.00,,,0.00,LWC V2.10 B1813,2013-10-21 04:11:00,
2013-10-20 23:16:00,63.0,44.5,29.24,SSE,164,3.1,7.6,51,0.00,,,0.00,LWC V2.10 B1813,2013-10-21 04:16:00,
2013-10-20 23:21:00,62.8,44.9,29.24,South,184,4.0,7.6,52,0.00,,,0.00,LWC V2.10 B1813,2013-10-21 04:21:00,
2013-10-20 23:26:00,62.8,44.9,29.24,South,170,3.6,8.3,52,0.00,,,0.00,LWC V2.10 B1813,2013-10-21 04:26:00,
2013-10-20 23:31:00,62.8,44.9,29.24,South,189,3.6,7.2,52,0.00,,,0.00,LWC V2.10 B1813,2013-10-21 04:31:00,
2013-10-20 23:36:00,62.8,44.9,29.24,SE,130,6.3,8.3,52,0.00,,,0.00,LWC V2.10 B1813,2013-10-21 04:36:00,
2013-10-20 23:41:00,63.0,45.1,29.24,South,169,3.1,6.3,52,0.00,,,0.00,LWC V2.10 B1813,2013-10-21 04:41:00,
2013-10-20 23:46:00,62.8,44.9,29.24,ESE,118,6.3,7.6,52,0.00,,,0.00,LWC V2.10 B1813,2013-10-21 04:46:00,
2013-10-20 23:51:00,62.6,45.2,29.20,SSE,160,5.4,6.7,53,0.00,,,0.00,LWC V2.10 B1813,2013-10-21 04:51:00,
2013-10-20 23:56:00,62.6,45.2,29.20,SSE,153,5.8,6.3,53,0.00,,,0.00,LWC V2.10 B1813,2013-10-21 04:56:00,